»·PEaware :: N906AC KCRQ-KSNA

N906AC :: KCRQ-KSNA

FLIGHT INFORMATION

Flight Status: Arrived
Operator: Privately registered:
United States
More flights under this callsign
Pilot: Amos W. (244)
Aircraft: PIPER J-3 CUB
(J3)
More flights by this aircraft type
Origin: KCRQ McClellan-Palomar
United States
Destination: KSNA John Wayne-Orange Co
United States
More flights between these airports :: More routes between these airports
Route: +NW
File this flight plan on PilotEdge
Remarks:
Altitude:
(Current/Filed)
0ft
Speed:
(Current/Filed)
0kts
Departed: 19-May-12 08:40 PM
Arrived: 19-May-12 09:25 PM
Distance/Time
Traveled:
44nm/0:45
Distance/Time
To Go:
Arrived

Flight Plot

Page will automatically refresh every two minutes.


Map Options




Map Legend


Flown Route
Filed Route
Departure Airport
Arrival Airport
Navaid (VOR, NDB)
Fix

Horizontal Profiles

Position Reports

Time Latitude Longitude Heading Altitude Ground
Speed
19-May-12 20:21 33.126972 -117.277180 77 335ft 0kts
19-May-12 20:22 33.126972 -117.277179 77 335ft 0kts
19-May-12 20:23 33.126973 -117.277179 77 335ft 0kts
19-May-12 20:24 33.127780 -117.276016 53 335ft 8kts
19-May-12 20:25 33.128761 -117.272365 355 335ft 7kts
19-May-12 20:26 33.128957 -117.272403 349 335ft 0kts
19-May-12 20:27 33.128965 -117.272404 345 335ft 1kts
19-May-12 20:28 33.128185 -117.272499 118 335ft 0kts
19-May-12 20:29 33.128442 -117.272244 298 335ft 5kts
19-May-12 20:30 33.128219 -117.272395 170 335ft 0kts
19-May-12 20:31 33.128218 -117.272394 170 335ft 0kts
19-May-12 20:32 33.128218 -117.272394 170 335ft 0kts
19-May-12 20:33 33.128217 -117.272394 170 335ft 0kts
19-May-12 20:34 33.128216 -117.272394 170 335ft 0kts
19-May-12 20:35 33.128216 -117.272394 170 335ft 0kts
19-May-12 20:36 33.128215 -117.272394 170 335ft 0kts
19-May-12 20:37 33.128215 -117.272394 170 335ft 0kts
19-May-12 20:38 33.128952 -117.272395 346 335ft 0kts
19-May-12 20:39 33.129071 -117.275549 264 398ft 41kts
19-May-12 20:40 33.126010 -117.294286 267 1018ft 62kts
19-May-12 20:41 33.136538 -117.313220 311 1198ft 74kts
19-May-12 20:42 33.149534 -117.332745 311 1146ft 75kts
19-May-12 20:43 33.162105 -117.352912 313 1008ft 80kts
19-May-12 20:44 33.177781 -117.370613 319 868ft 76kts
19-May-12 20:45 33.194640 -117.386414 324 738ft 76kts
19-May-12 20:46 33.210330 -117.403185 317 629ft 76kts
19-May-12 20:47 33.217116 -117.421104 242 957ft 65kts
19-May-12 20:48 33.216209 -117.440455 317 1312ft 68kts
19-May-12 20:49 33.228910 -117.457691 291 1600ft 68kts
19-May-12 20:50 33.235851 -117.478745 311 1842ft 68kts
19-May-12 20:51 33.249681 -117.494520 321 2056ft 69kts
19-May-12 20:52 33.266639 -117.509058 329 1714ft 77kts
19-May-12 20:53 33.286101 -117.520244 332 1375ft 71kts
19-May-12 20:54 33.305984 -117.526069 352 692ft 73kts
19-May-12 20:55 33.317854 -117.542179 297 974ft 64kts
19-May-12 20:56 33.326226 -117.561359 298 1426ft 65kts
19-May-12 20:57 33.334306 -117.576653 309 1763ft 65kts
19-May-12 20:59 33.352684 -117.614389 311 2418ft 67kts
19-May-12 21:00 33.368719 -117.625255 337 2483ft 66kts
19-May-12 21:01 33.385677 -117.633653 341 2430ft 64kts
19-May-12 21:02 33.402210 -117.641428 339 2464ft 63kts
19-May-12 21:03 33.418523 -117.648840 340 2524ft 62kts
19-May-12 21:04 33.434462 -117.656589 335 2524ft 60kts
19-May-12 21:05 33.449704 -117.665227 339 2290ft 60kts
19-May-12 21:06 33.465749 -117.671140 355 2064ft 60kts
19-May-12 21:07 33.482565 -117.669531 3 1855ft 60kts
19-May-12 21:08 33.498900 -117.667193 10 1720ft 57kts
19-May-12 21:09 33.514199 -117.670635 341 1655ft 56kts
19-May-12 21:10 33.528995 -117.677055 337 1614ft 56kts
19-May-12 21:11 33.543119 -117.685249 333 1583ft 55kts
19-May-12 21:12 33.557107 -117.694588 329 1684ft 61kts
19-May-12 21:13 33.572024 -117.705561 323 2161ft 63kts
19-May-12 21:14 33.585867 -117.719165 304 2548ft 65kts
19-May-12 21:15 33.592983 -117.740061 286 2616ft 75kts
19-May-12 21:16 33.598716 -117.765840 281 2114ft 78kts
19-May-12 21:17 33.605117 -117.790622 290 1854ft 75kts
19-May-12 21:18 33.618117 -117.810173 311 1719ft 75kts
19-May-12 21:19 33.630457 -117.829011 306 1248ft 70kts
19-May-12 21:20 33.642694 -117.847211 307 663ft 70kts
19-May-12 21:21 33.655460 -117.866309 306 448ft 76kts
19-May-12 21:22 33.669864 -117.857689 40 797ft 69kts
19-May-12 21:23 33.685687 -117.853864 308 628ft 64kts
19-May-12 21:24 33.678858 -117.864960 209 60ft 12kts
19-May-12 21:25 33.677041 -117.864887 104 60ft 10kts
19-May-12 21:26 33.677050 -117.863245 116 60ft 0kts
19-May-12 21:27 33.677078 -117.863311 117 60ft 0kts
19-May-12 21:28 33.677078 -117.863311 117 60ft 0kts
19-May-12 21:29 33.677078 -117.863311 117 60ft 0kts
19-May-12 21:30 33.677078 -117.863311 117 60ft 0kts

Navigation Log

Ident Type
Flight plan parsing failed, navigation log unavailable